Kaaawa, Hawaii
Current Conditions -  °F | °C
As of 12:57 PM on Wednesday 26 Nov 2014 (Local Time) from PHNG Reporting Station
Overcast Overcast  
Wind Chill: 77°   Ceiling: 5000
Heat Index: 79°   Visibility: 9mi
Dew Point: 64°   Wind: 17mph
Humidity: 64%   Direction: 30°NNE
Pressure: 30.05"   Gusts: 24mph
Location:  21.54°N, 157.84°W
Report Text: PHNG 262257Z 03015G21KT 9SM SCT030 SCT043 OVC050 25/18 A3005 RMK AO2 SLP171 T02500178 $
Loading
Personal Weather Stations






























Interactive Weather Map New forecast layout! Learn more

10-Day Weather Forecast

Advertisements
Track Severe Weather on mobile